createdAt,value
2019-02-16T05:00:17.250Z,65.70
2019-02-16T05:02:39.779Z,65.50
2019-02-16T05:05:03.504Z,65.10
2019-02-16T05:07:25.922Z,66.90
2019-02-16T05:09:48.339Z,66.20
2019-02-16T05:12:10.770Z,65.50
2019-02-16T05:14:33.195Z,65.30
2019-02-16T06:02:22.415Z,67.40
2019-02-16T06:04:57.785Z,69.50
2019-02-16T06:07:32.899Z,69.40
2019-02-16T06:10:08.099Z,72.00
2019-02-16T06:12:44.387Z,70.10
2019-02-16T07:00:20.576Z,67.30
2019-02-16T07:02:42.999Z,67.50
2019-02-16T07:05:05.666Z,68.80
2019-02-16T07:07:28.071Z,68.20
2019-02-16T07:10:03.547Z,69.10
2019-02-16T07:12:38.667Z,68.40
2019-02-16T08:03:00.671Z,25.60
2019-02-16T08:05:42.607Z,23.30
2019-02-16T08:08:43.975Z,22.40
2019-02-16T08:11:38.210Z,21.00
2019-02-16T08:14:16.572Z,19.70
2019-02-16T09:01:40.578Z,15.40
2019-02-16T09:04:23.614Z,14.70
2019-02-16T09:07:04.681Z,14.00
2019-02-16T09:09:45.393Z,13.40
2019-02-16T09:12:33.394Z,12.60
2019-02-16T10:02:42.167Z,12.40
2019-02-16T10:05:33.080Z,12.50
2019-02-16T10:08:12.758Z,12.00
2019-02-16T10:10:53.493Z,11.30
2019-02-16T10:13:38.427Z,11.50
2019-02-16T11:01:43.007Z,19.10
2019-02-16T11:04:23.715Z,19.10
2019-02-16T11:07:00.530Z,19.40
2019-02-16T11:09:38.818Z,20.20
2019-02-16T11:12:39.306Z,20.60
2019-02-16T15:02:39.075Z,23.80
2019-02-16T15:05:14.304Z,25.70
2019-02-16T15:07:50.368Z,25.50
2019-02-16T15:10:26.785Z,25.80
2019-02-16T15:13:02.432Z,27.30
2019-02-16T16:02:47.395Z,34.20
2019-02-16T16:05:22.223Z,34.60
2019-02-16T16:08:16.696Z,35.30
2019-02-16T16:11:03.634Z,35.30
2019-02-16T16:13:47.303Z,35.50
2019-02-16T17:02:24.182Z,42.20
2019-02-16T17:05:09.870Z,42.90
2019-02-16T17:08:07.316Z,43.30
2019-02-16T17:11:04.443Z,43.70
2019-02-16T17:13:58.392Z,43.70
2019-02-16T18:00:35.851Z,49.80
2019-02-16T18:03:25.634Z,50.40
2019-02-16T18:06:26.284Z,50.30
2019-02-16T18:09:20.405Z,51.00
2019-02-16T18:12:15.370Z,51.00
2019-02-16T19:05:28.962Z,57.70
2019-02-16T19:08:28.015Z,57.90
2019-02-16T19:11:22.444Z,59.20
2019-02-16T19:14:16.779Z,59.60
2019-02-16T20:00:43.309Z,63.20
2019-02-16T20:03:44.721Z,63.10
2019-02-16T20:06:26.711Z,63.90
2019-02-16T20:09:21.473Z,63.50
2019-02-16T20:12:06.135Z,63.70
2019-02-16T20:14:56.690Z,63.60
2019-02-16T21:01:45.278Z,66.00
2019-02-16T21:04:27.211Z,66.30
2019-02-16T21:07:28.752Z,66.40
2019-02-16T21:10:23.634Z,66.30
2019-02-16T21:13:07.243Z,66.30
